sensor_id;sensor_type;location;lat;lon;timestamp;temperature;humidity
53310;DHT22;39197;53.200;5.792;2022-09-25T00:01:11;12.30;99.90
53310;DHT22;39197;53.200;5.792;2022-09-25T00:03:38;12.30;99.90
53310;DHT22;39197;53.200;5.792;2022-09-25T00:06:10;12.30;99.90
53310;DHT22;39197;53.200;5.792;2022-09-25T00:08:36;12.20;99.90
53310;DHT22;39197;53.200;5.792;2022-09-25T00:11:09;12.20;99.90
53310;DHT22;39197;53.200;5.792;2022-09-25T00:13:35;12.20;99.90
53310;DHT22;39197;53.200;5.792;2022-09-25T00:16:02;12.20;99.90
53310;DHT22;39197;53.200;5.792;2022-09-25T00:18:28;12.20;99.90
53310;DHT22;39197;53.200;5.792;2022-09-25T00:21:13;12.20;99.90
53310;DHT22;39197;53.200;5.792;2022-09-25T00:23:41;12.10;99.90
53310;DHT22;39197;53.200;5.792;2022-09-25T00:26:10;12.10;99.90
53310;DHT22;39197;53.200;5.792;2022-09-25T00:28:36;12.10;99.90
53310;DHT22;39197;53.200;5.792;2022-09-25T00:31:04;12.00;99.90
53310;DHT22;39197;53.200;5.792;2022-09-25T00:33:31;12.00;99.90
53310;DHT22;39197;53.200;5.792;2022-09-25T00:36:09;11.90;99.90
53310;DHT22;39197;53.200;5.792;2022-09-25T00:38:36;11.90;99.90
53310;DHT22;39197;53.200;5.792;2022-09-25T00:41:03;11.80;99.90
53310;DHT22;39197;53.200;5.792;2022-09-25T00:43:42;11.80;99.90
53310;DHT22;39197;53.200;5.792;2022-09-25T00:46:22;11.70;99.90
53310;DHT22;39197;53.200;5.792;2022-09-25T00:51:44;11.70;99.90
53310;DHT22;39197;53.200;5.792;2022-09-25T00:54:18;11.60;99.90
53310;DHT22;39197;53.200;5.792;2022-09-25T00:56:48;11.60;99.90
53310;DHT22;39197;53.200;5.792;2022-09-25T00:59:20;11.60;99.90
53310;DHT22;39197;53.200;5.792;2022-09-25T01:01:47;11.50;99.90
53310;DHT22;39197;53.200;5.792;2022-09-25T01:04:15;11.50;99.90
53310;DHT22;39197;53.200;5.792;2022-09-25T01:06:41;11.40;99.90
53310;DHT22;39197;53.200;5.792;2022-09-25T01:09:07;11.40;99.90
53310;DHT22;39197;53.200;5.792;2022-09-25T01:11:32;11.30;99.90
53310;DHT22;39197;53.200;5.792;2022-09-25T01:14:01;11.30;99.90
53310;DHT22;39197;53.200;5.792;2022-09-25T01:16:30;11.30;99.90
53310;DHT22;39197;53.200;5.792;2022-09-25T01:24:43;11.20;99.90
53310;DHT22;39197;53.200;5.792;2022-09-25T01:30:21;11.30;99.90
53310;DHT22;39197;53.200;5.792;2022-09-25T01:38:32;11.40;99.90
53310;DHT22;39197;53.200;5.792;2022-09-25T01:43:33;11.40;99.90
53310;DHT22;39197;53.200;5.792;2022-09-25T01:46:11;11.40;99.90
53310;DHT22;39197;53.200;5.792;2022-09-25T01:48:39;11.30;99.90
53310;DHT22;39197;53.200;5.792;2022-09-25T01:51:14;11.30;99.90
53310;DHT22;39197;53.200;5.792;2022-09-25T01:53:45;11.30;99.90
53310;DHT22;39197;53.200;5.792;2022-09-25T01:56:17;11.30;99.90
53310;DHT22;39197;53.200;5.792;2022-09-25T01:58:52;11.30;99.90
53310;DHT22;39197;53.200;5.792;2022-09-25T02:01:24;11.30;99.90
53310;DHT22;39197;53.200;5.792;2022-09-25T02:03:57;11.20;99.90
53310;DHT22;39197;53.200;5.792;2022-09-25T02:06:25;11.20;99.90
53310;DHT22;39197;53.200;5.792;2022-09-25T02:08:58;11.30;99.90
53310;DHT22;39197;53.200;5.792;2022-09-25T02:11:33;11.20;99.90
53310;DHT22;39197;53.200;5.792;2022-09-25T02:14:20;11.20;99.90
53310;DHT22;39197;53.200;5.792;2022-09-25T02:16:49;11.20;99.90
53310;DHT22;39197;53.200;5.792;2022-09-25T02:19:16;11.20;99.90
53310;DHT22;39197;53.200;5.792;2022-09-25T02:22:14;11.20;99.90
53310;DHT22;39197;53.200;5.792;2022-09-25T02:25:05;11.10;99.90
53310;DHT22;39197;53.200;5.792;2022-09-25T02:27:35;11.10;99.90
53310;DHT22;39197;53.200;5.792;2022-09-25T02:30:02;11.00;99.90
53310;DHT22;39197;53.200;5.792;2022-09-25T02:32:30;11.00;99.90
53310;DHT22;39197;53.200;5.792;2022-09-25T02:34:57;11.00;99.90
53310;DHT22;39197;53.200;5.792;2022-09-25T02:37:24;11.00;99.90
53310;DHT22;39197;53.200;5.792;2022-09-25T02:39:54;11.00;99.90
53310;DHT22;39197;53.200;5.792;2022-09-25T02:42:59;10.90;99.90
53310;DHT22;39197;53.200;5.792;2022-09-25T02:51:12;11.00;99.90
53310;DHT22;39197;53.200;5.792;2022-09-25T02:53:47;11.10;99.90
53310;DHT22;39197;53.200;5.792;2022-09-25T02:56:39;11.10;99.90
53310;DHT22;39197;53.200;5.792;2022-09-25T02:59:11;11.20;99.90
53310;DHT22;39197;53.200;5.792;2022-09-25T03:01:40;11.20;99.90
53310;DHT22;39197;53.200;5.792;2022-09-25T03:04:08;11.20;99.90
53310;DHT22;39197;53.200;5.792;2022-09-25T03:06:36;11.20;99.90
53310;DHT22;39197;53.200;5.792;2022-09-25T03:09:03;11.20;99.90
53310;DHT22;39197;53.200;5.792;2022-09-25T03:11:29;11.20;99.90
53310;DHT22;39197;53.200;5.792;2022-09-25T03:13:57;11.20;99.90
53310;DHT22;39197;53.200;5.792;2022-09-25T03:16:46;11.30;99.90
53310;DHT22;39197;53.200;5.792;2022-09-25T03:19:13;11.30;99.90
53310;DHT22;39197;53.200;5.792;2022-09-25T03:21:39;11.30;99.90
53310;DHT22;39197;53.200;5.792;2022-09-25T03:24:05;11.30;99.90
53310;DHT22;39197;53.200;5.792;2022-09-25T03:26:31;11.40;99.90
53310;DHT22;39197;53.200;5.792;2022-09-25T03:28:56;11.40;99.90
53310;DHT22;39197;53.200;5.792;2022-09-25T03:31:27;11.40;99.90
53310;DHT22;39197;53.200;5.792;2022-09-25T03:33:54;11.40;99.90
53310;DHT22;39197;53.200;5.792;2022-09-25T03:36:22;11.30;99.90
53310;DHT22;39197;53.200;5.792;2022-09-25T03:38:51;11.30;99.90
53310;DHT22;39197;53.200;5.792;2022-09-25T03:41:19;11.30;99.90
53310;DHT22;39197;53.200;5.792;2022-09-25T03:43:47;11.30;99.90
53310;DHT22;39197;53.200;5.792;2022-09-25T03:46:14;11.30;99.90
53310;DHT22;39197;53.200;5.792;2022-09-25T03:48:40;11.30;99.90
53310;DHT22;39197;53.200;5.792;2022-09-25T03:51:07;11.30;99.90
53310;DHT22;39197;53.200;5.792;2022-09-25T03:53:34;11.20;99.90
53310;DHT22;39197;53.200;5.792;2022-09-25T03:56:02;11.20;99.90
53310;DHT22;39197;53.200;5.792;2022-09-25T03:58:28;11.20;99.90
53310;DHT22;39197;53.200;5.792;2022-09-25T04:00:55;11.20;99.90
53310;DHT22;39197;53.200;5.792;2022-09-25T04:03:22;11.20;99.90
53310;DHT22;39197;53.200;5.792;2022-09-25T04:05:48;11.10;99.90
53310;DHT22;39197;53.200;5.792;2022-09-25T04:08:13;11.10;99.90
53310;DHT22;39197;53.200;5.792;2022-09-25T04:10:40;11.10;99.90
53310;DHT22;39197;53.200;5.792;2022-09-25T04:13:06;11.10;99.90
53310;DHT22;39197;53.200;5.792;2022-09-25T04:15:33;11.00;99.90
53310;DHT22;39197;53.200;5.792;2022-09-25T04:17:58;11.00;99.90
53310;DHT22;39197;53.200;5.792;2022-09-25T04:20:24;11.00;99.90
53310;DHT22;39197;53.200;5.792;2022-09-25T04:22:49;11.00;99.90
53310;DHT22;39197;53.200;5.792;2022-09-25T04:25:15;11.00;99.90
53310;DHT22;39197;53.200;5.792;2022-09-25T04:27:41;11.00;99.90
53310;DHT22;39197;53.200;5.792;2022-09-25T04:30:08;11.00;99.90
53310;DHT22;39197;53.200;5.792;2022-09-25T04:32:35;11.00;99.90
53310;DHT22;39197;53.200;5.792;2022-09-25T04:35:19;11.00;99.90
53310;DHT22;39197;53.200;5.792;2022-09-25T04:37:45;11.00;99.90
53310;DHT22;39197;53.200;5.792;2022-09-25T04:40:10;11.00;99.90
53310;DHT22;39197;53.200;5.792;2022-09-25T04:42:36;11.00;99.90
53310;DHT22;39197;53.200;5.792;2022-09-25T04:45:02;11.00;99.90
53310;DHT22;39197;53.200;5.792;2022-09-25T04:47:27;11.10;99.90
53310;DHT22;39197;53.200;5.792;2022-09-25T04:49:56;11.10;99.90
53310;DHT22;39197;53.200;5.792;2022-09-25T04:52:22;11.10;99.90
53310;DHT22;39197;53.200;5.792;2022-09-25T04:54:48;11.10;99.90
53310;DHT22;39197;53.200;5.792;2022-09-25T04:57:15;11.10;99.90
53310;DHT22;39197;53.200;5.792;2022-09-25T04:59:41;11.10;99.90
53310;DHT22;39197;53.200;5.792;2022-09-25T05:02:06;11.10;99.90
53310;DHT22;39197;53.200;5.792;2022-09-25T05:04:32;11.10;99.90
53310;DHT22;39197;53.200;5.792;2022-09-25T05:06:58;11.20;99.90
53310;DHT22;39197;53.200;5.792;2022-09-25T05:09:23;11.10;99.90
53310;DHT22;39197;53.200;5.792;2022-09-25T05:11:49;11.10;99.90
53310;DHT22;39197;53.200;5.792;2022-09-25T05:14:15;11.10;99.90
53310;DHT22;39197;53.200;5.792;2022-09-25T05:16:41;11.10;99.90
53310;DHT22;39197;53.200;5.792;2022-09-25T05:19:06;11.10;99.90
53310;DHT22;39197;53.200;5.792;2022-09-25T05:21:32;11.00;99.90
53310;DHT22;39197;53.200;5.792;2022-09-25T05:23:58;11.00;99.90
53310;DHT22;39197;53.200;5.792;2022-09-25T05:26:24;11.00;99.90
53310;DHT22;39197;53.200;5.792;2022-09-25T05:28:50;11.00;99.90
53310;DHT22;39197;53.200;5.792;2022-09-25T05:31:16;10.90;99.90
53310;DHT22;39197;53.200;5.792;2022-09-25T05:33:42;10.90;99.90
53310;DHT22;39197;53.200;5.792;2022-09-25T05:36:08;10.90;99.90
53310;DHT22;39197;53.200;5.792;2022-09-25T05:38:36;10.90;99.90
53310;DHT22;39197;53.200;5.792;2022-09-25T05:41:06;10.80;99.90
53310;DHT22;39197;53.200;5.792;2022-09-25T05:43:33;10.80;99.90
53310;DHT22;39197;53.200;5.792;2022-09-25T05:45:59;10.80;99.90
53310;DHT22;39197;53.200;5.792;2022-09-25T05:48:25;10.80;99.90
53310;DHT22;39197;53.200;5.792;2022-09-25T05:50:52;10.70;99.90
53310;DHT22;39197;53.200;5.792;2022-09-25T05:53:17;10.70;99.90
53310;DHT22;39197;53.200;5.792;2022-09-25T05:55:57;10.70;99.90
53310;DHT22;39197;53.200;5.792;2022-09-25T05:58:24;10.60;99.90
53310;DHT22;39197;53.200;5.792;2022-09-25T06:00:50;10.60;99.90
53310;DHT22;39197;53.200;5.792;2022-09-25T06:03:16;10.60;99.90
53310;DHT22;39197;53.200;5.792;2022-09-25T06:05:42;10.60;99.90
53310;DHT22;39197;53.200;5.792;2022-09-25T06:08:12;10.50;99.90
53310;DHT22;39197;53.200;5.792;2022-09-25T06:10:38;10.40;99.90
53310;DHT22;39197;53.200;5.792;2022-09-25T06:13:04;10.40;99.90
53310;DHT22;39197;53.200;5.792;2022-09-25T06:15:35;10.50;99.90
53310;DHT22;39197;53.200;5.792;2022-09-25T06:18:07;10.50;99.90
53310;DHT22;39197;53.200;5.792;2022-09-25T06:20:34;10.50;99.90
53310;DHT22;39197;53.200;5.792;2022-09-25T06:23:00;10.40;99.90
53310;DHT22;39197;53.200;5.792;2022-09-25T06:25:30;10.50;99.90
53310;DHT22;39197;53.200;5.792;2022-09-25T06:28:01;10.50;99.90
53310;DHT22;39197;53.200;5.792;2022-09-25T06:30:29;10.50;99.90
53310;DHT22;39197;53.200;5.792;2022-09-25T06:33:11;10.50;99.90
53310;DHT22;39197;53.200;5.792;2022-09-25T06:35:42;10.50;99.90
53310;DHT22;39197;53.200;5.792;2022-09-25T06:38:08;10.50;99.90
53310;DHT22;39197;53.200;5.792;2022-09-25T06:40:34;10.50;99.90
53310;DHT22;39197;53.200;5.792;2022-09-25T06:43:03;10.50;99.90
53310;DHT22;39197;53.200;5.792;2022-09-25T06:45:31;10.60;99.90
53310;DHT22;39197;53.200;5.792;2022-09-25T06:48:08;10.90;99.90
53310;DHT22;39197;53.200;5.792;2022-09-25T06:50:44;11.50;99.90
53310;DHT22;39197;53.200;5.792;2022-09-25T06:53:10;12.20;99.90
53310;DHT22;39197;53.200;5.792;2022-09-25T06:55:36;12.90;99.90
53310;DHT22;39197;53.200;5.792;2022-09-25T06:58:04;13.50;99.90
53310;DHT22;39197;53.200;5.792;2022-09-25T07:00:31;14.00;99.90
53310;DHT22;39197;53.200;5.792;2022-09-25T07:02:58;14.60;99.90
53310;DHT22;39197;53.200;5.792;2022-09-25T07:05:43;15.00;99.90
53310;DHT22;39197;53.200;5.792;2022-09-25T07:08:15;15.40;99.90
53310;DHT22;39197;53.200;5.792;2022-09-25T07:10:54;15.70;99.90
53310;DHT22;39197;53.200;5.792;2022-09-25T07:13:23;16.00;99.90
53310;DHT22;39197;53.200;5.792;2022-09-25T07:15:51;16.10;99.90
53310;DHT22;39197;53.200;5.792;2022-09-25T07:18:16;16.40;99.90
53310;DHT22;39197;53.200;5.792;2022-09-25T07:20:42;16.50;99.90
53310;DHT22;39197;53.200;5.792;2022-09-25T07:23:14;16.80;99.90
53310;DHT22;39197;53.200;5.792;2022-09-25T07:25:42;16.80;99.90
53310;DHT22;39197;53.200;5.792;2022-09-25T07:28:08;17.10;99.90
53310;DHT22;39197;53.200;5.792;2022-09-25T07:30:34;17.00;99.90
53310;DHT22;39197;53.200;5.792;2022-09-25T07:33:00;17.10;99.90
53310;DHT22;39197;53.200;5.792;2022-09-25T07:35:26;17.60;99.90
53310;DHT22;39197;53.200;5.792;2022-09-25T07:37:57;17.70;99.90
53310;DHT22;39197;53.200;5.792;2022-09-25T07:40:24;18.10;99.90
53310;DHT22;39197;53.200;5.792;2022-09-25T07:42:51;18.30;99.90
53310;DHT22;39197;53.200;5.792;2022-09-25T07:45:17;18.40;99.90
53310;DHT22;39197;53.200;5.792;2022-09-25T07:47:43;18.70;99.90
53310;DHT22;39197;53.200;5.792;2022-09-25T07:50:08;18.50;99.90
53310;DHT22;39197;53.200;5.792;2022-09-25T07:52:34;18.40;99.90
53310;DHT22;39197;53.200;5.792;2022-09-25T07:55:00;18.80;99.90
53310;DHT22;39197;53.200;5.792;2022-09-25T07:57:25;19.50;99.90
53310;DHT22;39197;53.200;5.792;2022-09-25T07:59:51;20.10;99.90
53310;DHT22;39197;53.200;5.792;2022-09-25T08:02:17;20.20;99.90
53310;DHT22;39197;53.200;5.792;2022-09-25T08:04:43;20.00;99.90
53310;DHT22;39197;53.200;5.792;2022-09-25T08:07:08;19.20;99.90
53310;DHT22;39197;53.200;5.792;2022-09-25T08:09:34;18.30;99.90
53310;DHT22;39197;53.200;5.792;2022-09-25T08:11:59;17.60;99.90
53310;DHT22;39197;53.200;5.792;2022-09-25T08:14:25;17.00;99.90
53310;DHT22;39197;53.200;5.792;2022-09-25T08:16:50;16.50;99.90
53310;DHT22;39197;53.200;5.792;2022-09-25T08:19:20;16.10;99.90
53310;DHT22;39197;53.200;5.792;2022-09-25T08:21:48;15.60;99.90
53310;DHT22;39197;53.200;5.792;2022-09-25T08:24:13;15.50;99.90
53310;DHT22;39197;53.200;5.792;2022-09-25T08:26:39;15.30;99.90
53310;DHT22;39197;53.200;5.792;2022-09-25T08:29:05;15.30;99.90
53310;DHT22;39197;53.200;5.792;2022-09-25T08:31:32;15.70;99.90
53310;DHT22;39197;53.200;5.792;2022-09-25T08:33:59;16.00;99.90
53310;DHT22;39197;53.200;5.792;2022-09-25T08:36:24;16.40;99.90
53310;DHT22;39197;53.200;5.792;2022-09-25T08:38:51;16.80;99.90
53310;DHT22;39197;53.200;5.792;2022-09-25T08:41:29;17.00;99.90
53310;DHT22;39197;53.200;5.792;2022-09-25T08:44:03;17.00;99.90
53310;DHT22;39197;53.200;5.792;2022-09-25T08:46:39;17.30;99.90
53310;DHT22;39197;53.200;5.792;2022-09-25T08:49:32;18.40;99.90
53310;DHT22;39197;53.200;5.792;2022-09-25T08:52:03;19.90;99.90
53310;DHT22;39197;53.200;5.792;2022-09-25T08:54:31;20.90;99.90
53310;DHT22;39197;53.200;5.792;2022-09-25T08:59:44;22.30;99.90
53310;DHT22;39197;53.200;5.792;2022-09-25T09:02:18;22.00;99.90
53310;DHT22;39197;53.200;5.792;2022-09-25T09:04:54;21.10;99.90
53310;DHT22;39197;53.200;5.792;2022-09-25T09:07:26;20.20;99.90
53310;DHT22;39197;53.200;5.792;2022-09-25T09:10:47;20.20;99.90
53310;DHT22;39197;53.200;5.792;2022-09-25T09:13:04;20.40;99.90
53310;DHT22;39197;53.200;5.792;2022-09-25T09:15:43;20.50;99.90
53310;DHT22;39197;53.200;5.792;2022-09-25T09:18:25;20.50;99.90
53310;DHT22;39197;53.200;5.792;2022-09-25T09:24:04;19.60;99.90
53310;DHT22;39197;53.200;5.792;2022-09-25T09:27:00;19.20;99.90
53310;DHT22;39197;53.200;5.792;2022-09-25T09:29:42;18.60;99.90
53310;DHT22;39197;53.200;5.792;2022-09-25T09:38:37;17.70;99.90
53310;DHT22;39197;53.200;5.792;2022-09-25T09:41:23;17.60;99.90
53310;DHT22;39197;53.200;5.792;2022-09-25T09:44:18;17.40;99.90
53310;DHT22;39197;53.200;5.792;2022-09-25T09:49:52;17.40;99.90
53310;DHT22;39197;53.200;5.792;2022-09-25T09:52:32;17.60;99.90
53310;DHT22;39197;53.200;5.792;2022-09-25T09:55:13;17.70;99.90
53310;DHT22;39197;53.200;5.792;2022-09-25T09:57:49;18.20;99.90
53310;DHT22;39197;53.200;5.792;2022-09-25T10:00:18;18.90;99.90
53310;DHT22;39197;53.200;5.792;2022-09-25T10:02:51;19.90;99.90
53310;DHT22;39197;53.200;5.792;2022-09-25T10:05:27;20.70;99.90
53310;DHT22;39197;53.200;5.792;2022-09-25T10:07:54;21.50;99.90
53310;DHT22;39197;53.200;5.792;2022-09-25T10:13:30;21.70;99.90
53310;DHT22;39197;53.200;5.792;2022-09-25T10:16:05;20.50;99.90
53310;DHT22;39197;53.200;5.792;2022-09-25T10:18:45;19.50;99.90
53310;DHT22;39197;53.200;5.792;2022-09-25T10:21:21;19.00;99.90
53310;DHT22;39197;53.200;5.792;2022-09-25T10:23:49;19.10;99.90
53310;DHT22;39197;53.200;5.792;2022-09-25T10:26:23;19.60;99.90
53310;DHT22;39197;53.200;5.792;2022-09-25T10:28:49;19.90;99.90
53310;DHT22;39197;53.200;5.792;2022-09-25T10:31:16;19.60;99.90
53310;DHT22;39197;53.200;5.792;2022-09-25T10:36:44;18.40;99.90
53310;DHT22;39197;53.200;5.792;2022-09-25T10:39:35;17.80;99.90
53310;DHT22;39197;53.200;5.792;2022-09-25T10:42:07;17.40;99.90
53310;DHT22;39197;53.200;5.792;2022-09-25T10:44:54;17.20;99.90
53310;DHT22;39197;53.200;5.792;2022-09-25T10:47:30;16.90;99.90
53310;DHT22;39197;53.200;5.792;2022-09-25T10:52:53;16.70;99.90
53310;DHT22;39197;53.200;5.792;2022-09-25T10:55:34;16.60;99.90
53310;DHT22;39197;53.200;5.792;2022-09-25T10:58:12;16.70;99.90
53310;DHT22;39197;53.200;5.792;2022-09-25T11:03:36;17.00;99.90
53310;DHT22;39197;53.200;5.792;2022-09-25T11:06:06;17.80;99.90
53310;DHT22;39197;53.200;5.792;2022-09-25T11:08:38;18.60;99.90
53310;DHT22;39197;53.200;5.792;2022-09-25T11:11:06;19.00;99.90
53310;DHT22;39197;53.200;5.792;2022-09-25T11:13:46;19.70;99.90
53310;DHT22;39197;53.200;5.792;2022-09-25T11:16:12;20.50;99.90
53310;DHT22;39197;53.200;5.792;2022-09-25T11:18:49;21.80;99.90
53310;DHT22;39197;53.200;5.792;2022-09-25T11:21:29;22.20;99.90
53310;DHT22;39197;53.200;5.792;2022-09-25T11:24:12;22.70;99.90
53310;DHT22;39197;53.200;5.792;2022-09-25T11:26:49;22.70;99.90
53310;DHT22;39197;53.200;5.792;2022-09-25T11:29:25;23.10;99.90
53310;DHT22;39197;53.200;5.792;2022-09-25T11:32:10;23.50;99.70
53310;DHT22;39197;53.200;5.792;2022-09-25T11:34:59;24.00;99.30
53310;DHT22;39197;53.200;5.792;2022-09-25T11:37:45;23.90;98.80
53310;DHT22;39197;53.200;5.792;2022-09-25T11:40:51;23.60;98.30
53310;DHT22;39197;53.200;5.792;2022-09-25T11:46:38;24.20;98.40
53310;DHT22;39197;53.200;5.792;2022-09-25T11:57:24;22.00;98.10
53310;DHT22;39197;53.200;5.792;2022-09-25T12:00:19;22.20;98.10
53310;DHT22;39197;53.200;5.792;2022-09-25T12:02:50;22.70;97.70
53310;DHT22;39197;53.200;5.792;2022-09-25T12:18:42;23.00;96.20
53310;DHT22;39197;53.200;5.792;2022-09-25T12:21:09;23.10;95.10
53310;DHT22;39197;53.200;5.792;2022-09-25T12:26:13;23.70;94.70
53310;DHT22;39197;53.200;5.792;2022-09-25T12:33:47;23.90;94.50
53310;DHT22;39197;53.200;5.792;2022-09-25T12:38:49;24.40;93.90
53310;DHT22;39197;53.200;5.792;2022-09-25T12:43:50;23.10;95.10
53310;DHT22;39197;53.200;5.792;2022-09-25T12:46:26;22.80;95.40
53310;DHT22;39197;53.200;5.792;2022-09-25T12:49:07;23.00;95.00
53310;DHT22;39197;53.200;5.792;2022-09-25T12:56:46;21.50;97.00
53310;DHT22;39197;53.200;5.792;2022-09-25T12:59:33;21.10;97.60
53310;DHT22;39197;53.200;5.792;2022-09-25T13:05:02;21.40;98.20
53310;DHT22;39197;53.200;5.792;2022-09-25T13:10:23;21.00;97.80
53310;DHT22;39197;53.200;5.792;2022-09-25T13:12:54;20.50;98.20
53310;DHT22;39197;53.200;5.792;2022-09-25T13:15:24;20.40;98.60
53310;DHT22;39197;53.200;5.792;2022-09-25T13:17:50;20.70;98.50
53310;DHT22;39197;53.200;5.792;2022-09-25T13:22:51;22.00;96.90
53310;DHT22;39197;53.200;5.792;2022-09-25T13:25:20;22.10;96.80
53310;DHT22;39197;53.200;5.792;2022-09-25T13:27:46;22.00;96.80
53310;DHT22;39197;53.200;5.792;2022-09-25T13:30:24;22.30;96.80
53310;DHT22;39197;53.200;5.792;2022-09-25T13:32:52;22.20;95.80
53310;DHT22;39197;53.200;5.792;2022-09-25T13:35:20;22.60;95.90
53310;DHT22;39197;53.200;5.792;2022-09-25T13:37:48;22.90;95.00
53310;DHT22;39197;53.200;5.792;2022-09-25T13:40:18;22.90;95.20
53310;DHT22;39197;53.200;5.792;2022-09-25T13:45:47;23.20;93.30
53310;DHT22;39197;53.200;5.792;2022-09-25T14:01:48;23.80;92.70
53310;DHT22;39197;53.200;5.792;2022-09-25T14:06:44;23.60;93.10
53310;DHT22;39197;53.200;5.792;2022-09-25T14:09:12;23.00;93.20
53310;DHT22;39197;53.200;5.792;2022-09-25T14:11:41;22.90;93.30
53310;DHT22;39197;53.200;5.792;2022-09-25T14:14:13;22.00;93.60
53310;DHT22;39197;53.200;5.792;2022-09-25T14:16:52;21.40;94.50
53310;DHT22;39197;53.200;5.792;2022-09-25T14:19:40;21.40;95.10
53310;DHT22;39197;53.200;5.792;2022-09-25T14:22:07;21.30;95.30
53310;DHT22;39197;53.200;5.792;2022-09-25T14:24:41;20.90;95.70
53310;DHT22;39197;53.200;5.792;2022-09-25T14:27:24;20.80;96.10
53310;DHT22;39197;53.200;5.792;2022-09-25T14:30:01;21.20;96.30
53310;DHT22;39197;53.200;5.792;2022-09-25T14:35:33;21.00;96.30
53310;DHT22;39197;53.200;5.792;2022-09-25T14:46:51;19.60;98.20
53310;DHT22;39197;53.200;5.792;2022-09-25T14:49:26;19.40;98.40
53310;DHT22;39197;53.200;5.792;2022-09-25T14:51:57;19.00;99.20
53310;DHT22;39197;53.200;5.792;2022-09-25T14:54:25;19.00;99.10
53310;DHT22;39197;53.200;5.792;2022-09-25T14:56:55;19.00;99.20
53310;DHT22;39197;53.200;5.792;2022-09-25T14:59:42;18.60;99.70
53310;DHT22;39197;53.200;5.792;2022-09-25T15:04:48;18.30;99.90
53310;DHT22;39197;53.200;5.792;2022-09-25T15:07:15;18.20;99.90
53310;DHT22;39197;53.200;5.792;2022-09-25T15:09:43;18.20;99.90
53310;DHT22;39197;53.200;5.792;2022-09-25T15:12:32;18.20;99.90
53310;DHT22;39197;53.200;5.792;2022-09-25T15:15:10;18.10;99.90
53310;DHT22;39197;53.200;5.792;2022-09-25T15:17:44;17.90;99.90
53310;DHT22;39197;53.200;5.792;2022-09-25T15:20:14;17.90;99.90
53310;DHT22;39197;53.200;5.792;2022-09-25T15:22:53;17.70;99.90
53310;DHT22;39197;53.200;5.792;2022-09-25T15:25:26;17.70;99.90
53310;DHT22;39197;53.200;5.792;2022-09-25T15:27:53;17.70;99.90
53310;DHT22;39197;53.200;5.792;2022-09-25T15:30:18;17.60;99.90
53310;DHT22;39197;53.200;5.792;2022-09-25T15:32:47;17.60;99.90
53310;DHT22;39197;53.200;5.792;2022-09-25T15:35:22;17.70;99.90
53310;DHT22;39197;53.200;5.792;2022-09-25T15:37:55;17.80;99.90
53310;DHT22;39197;53.200;5.792;2022-09-25T15:40:26;17.90;99.90
53310;DHT22;39197;53.200;5.792;2022-09-25T15:42:55;17.90;99.90
53310;DHT22;39197;53.200;5.792;2022-09-25T15:45:35;17.80;99.90
53310;DHT22;39197;53.200;5.792;2022-09-25T15:48:17;17.60;99.90
53310;DHT22;39197;53.200;5.792;2022-09-25T15:50:45;17.60;99.90
53310;DHT22;39197;53.200;5.792;2022-09-25T15:53:30;17.40;99.90
53310;DHT22;39197;53.200;5.792;2022-09-25T15:56:17;17.40;99.90
53310;DHT22;39197;53.200;5.792;2022-09-25T16:01:15;17.20;99.90
53310;DHT22;39197;53.200;5.792;2022-09-25T16:04:05;17.00;99.90
53310;DHT22;39197;53.200;5.792;2022-09-25T16:06:50;16.70;99.90
53310;DHT22;39197;53.200;5.792;2022-09-25T16:09:22;16.50;99.90
53310;DHT22;39197;53.200;5.792;2022-09-25T16:11:52;16.60;99.90
53310;DHT22;39197;53.200;5.792;2022-09-25T16:14:26;16.70;99.90
53310;DHT22;39197;53.200;5.792;2022-09-25T16:16:56;16.70;99.90
53310;DHT22;39197;53.200;5.792;2022-09-25T16:19:30;16.60;99.90
53310;DHT22;39197;53.200;5.792;2022-09-25T16:21:58;16.60;99.90
53310;DHT22;39197;53.200;5.792;2022-09-25T16:24:26;16.70;99.90
53310;DHT22;39197;53.200;5.792;2022-09-25T16:26:56;16.70;99.90
53310;DHT22;39197;53.200;5.792;2022-09-25T16:29:25;16.70;99.90
53310;DHT22;39197;53.200;5.792;2022-09-25T16:31:51;16.70;99.90
53310;DHT22;39197;53.200;5.792;2022-09-25T16:36:46;16.40;99.90
53310;DHT22;39197;53.200;5.792;2022-09-25T16:39:29;16.20;99.90
53310;DHT22;39197;53.200;5.792;2022-09-25T16:41:57;16.30;99.90
53310;DHT22;39197;53.200;5.792;2022-09-25T16:49:22;15.60;99.90
53310;DHT22;39197;53.200;5.792;2022-09-25T16:51:49;15.70;99.90
53310;DHT22;39197;53.200;5.792;2022-09-25T16:54:18;15.60;99.90
53310;DHT22;39197;53.200;5.792;2022-09-25T16:56:46;15.50;99.90
53310;DHT22;39197;53.200;5.792;2022-09-25T16:59:21;15.30;99.90
53310;DHT22;39197;53.200;5.792;2022-09-25T17:01:51;15.30;99.90
53310;DHT22;39197;53.200;5.792;2022-09-25T17:04:27;15.30;99.90
53310;DHT22;39197;53.200;5.792;2022-09-25T17:06:55;15.20;99.90
53310;DHT22;39197;53.200;5.792;2022-09-25T17:09:27;15.10;99.90
53310;DHT22;39197;53.200;5.792;2022-09-25T17:12:02;15.00;99.90
53310;DHT22;39197;53.200;5.792;2022-09-25T17:14:31;14.90;99.90
53310;DHT22;39197;53.200;5.792;2022-09-25T17:16:57;14.90;99.90
53310;DHT22;39197;53.200;5.792;2022-09-25T17:19:23;14.80;99.90
53310;DHT22;39197;53.200;5.792;2022-09-25T17:21:50;14.80;99.90
53310;DHT22;39197;53.200;5.792;2022-09-25T17:24:19;14.70;99.90
53310;DHT22;39197;53.200;5.792;2022-09-25T17:26:45;14.60;99.90
53310;DHT22;39197;53.200;5.792;2022-09-25T17:29:11;14.30;99.90
53310;DHT22;39197;53.200;5.792;2022-09-25T17:31:37;14.40;99.90
53310;DHT22;39197;53.200;5.792;2022-09-25T17:34:17;14.40;99.90
53310;DHT22;39197;53.200;5.792;2022-09-25T17:36:43;14.40;99.90
53310;DHT22;39197;53.200;5.792;2022-09-25T17:39:09;14.20;99.90
53310;DHT22;39197;53.200;5.792;2022-09-25T17:41:36;14.10;99.90
53310;DHT22;39197;53.200;5.792;2022-09-25T17:44:02;13.90;99.90
53310;DHT22;39197;53.200;5.792;2022-09-25T17:46:28;13.80;99.90
53310;DHT22;39197;53.200;5.792;2022-09-25T17:48:54;13.70;99.90
53310;DHT22;39197;53.200;5.792;2022-09-25T17:51:23;13.70;99.90
53310;DHT22;39197;53.200;5.792;2022-09-25T17:53:50;13.60;99.90
53310;DHT22;39197;53.200;5.792;2022-09-25T17:56:19;13.60;99.90
53310;DHT22;39197;53.200;5.792;2022-09-25T17:58:45;13.60;99.90
53310;DHT22;39197;53.200;5.792;2022-09-25T18:01:16;13.50;99.90
53310;DHT22;39197;53.200;5.792;2022-09-25T18:03:57;13.40;99.90
53310;DHT22;39197;53.200;5.792;2022-09-25T18:06:24;13.30;99.90
53310;DHT22;39197;53.200;5.792;2022-09-25T18:08:50;13.20;99.90
53310;DHT22;39197;53.200;5.792;2022-09-25T18:11:19;13.10;99.90
53310;DHT22;39197;53.200;5.792;2022-09-25T18:13:46;13.10;99.90
53310;DHT22;39197;53.200;5.792;2022-09-25T18:16:18;13.10;99.90
53310;DHT22;39197;53.200;5.792;2022-09-25T18:18:43;13.00;99.90
53310;DHT22;39197;53.200;5.792;2022-09-25T18:21:28;12.90;99.90